Neffsville, Pennsylvania
Current Conditions -  °F | °C
As of 2:53 PM on Friday 19 Dec 2014 (Local Time) from KLNS Reporting Station
Clear Clear  
Wind Chill: 31°   Ceiling: Unl
Heat Index: 39°   Visibility: 10mi
Dew Point: 22°   Wind: 13mph
Humidity: 50%   Direction: 320°NW
Pressure: 30.08"   Gusts: NA
Location:  40.0734°N, 76.3168°W
Report Text: KLNS 191953Z 32011KT 10SM CLR 04/M06 A3008 RMK AO2 SLP190 T00391056
Loading
Personal Weather Stations






























Interactive Weather Map New forecast layout! Learn more

10-Day Weather Forecast

Advertisements
Track Severe Weather on mobile